Time;durP1;ratioP1;P1;durP2;ratioP2;P2;SDS_P1;SDS_P2;PMS_P1;PMS_P2;Temp;Humidity;BMP_temperature;BMP_pressure;BME280_temperature;BME280_humidity;BME280_pressure;Samples;Min_cycle;Max_cycle;Signal;HPM_P1;HPM_P2
2022/09/10 00:03:11;;;;;;;1.20;0.93;;;;;;;22.95;68.87;100154.47;18677049;31;20107;-57
2022/09/10 00:13:18;;;;;;;0.30;0.30;;;;;;;22.28;70.81;100151.06;18675759;31;20095;-57
2022/09/10 00:23:24;;;;;;;0.20;0.20;;;;;;;22.25;70.92;100155.72;18675498;31;20480;-57
2022/09/10 00:33:29;;;;;;;0.30;0.30;;;;;;;22.33;70.62;100155.28;18675175;31;20091;-57
2022/09/10 00:43:50;;;;;;;0.90;0.25;;;;;;;22.25;70.97;100139.78;18669379;31;20088;-57
2022/09/10 00:53:54;;;;;;;0.50;0.43;;;;;;;22.22;71.15;100123.97;18363400;32;20096;-57
2022/09/10 01:03:58;;;;;;;0.10;0.10;;;;;;;22.16;70.91;100118.06;18361389;32;20187;-57
2022/09/10 01:14:16;;;;;;;0.30;0.30;;;;;;;22.08;70.97;100117.63;18360932;32;20109;-57
2022/09/10 01:24:50;;;;;;;0.90;0.40;;;;;;;22.09;71.43;100106.06;18361618;32;20090;-57
2022/09/10 01:35:00;;;;;;;2.03;0.60;;;;;;;21.94;71.88;100090.94;18360018;32;20085;-57
2022/09/10 01:45:05;;;;;;;0.40;0.40;;;;;;;22.02;71.44;100078.97;18359725;32;20359;-57
2022/09/10 01:55:17;;;;;;;1.23;0.40;;;;;;;21.98;71.41;100082.72;18359360;32;20098;-57
2022/09/10 02:05:23;;;;;;;0.30;0.30;;;;;;;22.06;71.57;100071.69;18359175;32;20718;-57
2022/09/10 02:15:31;;;;;;;0.30;0.20;;;;;;;22.02;71.91;100049.72;18359262;32;20097;-59
2022/09/10 02:25:36;;;;;;;0.35;0.35;;;;;;;21.97;71.91;100040.31;18407176;31;20093;-55
2022/09/10 02:35:41;;;;;;;0.40;0.28;;;;;;;21.93;71.41;100012.16;18348854;32;20117;-56
2022/09/10 02:45:44;;;;;;;0.32;0.32;;;;;;;21.77;71.64;100034.28;18350913;32;20093;-56
2022/09/10 02:55:49;;;;;;;1.10;0.60;;;;;;;21.37;72.91;100039.06;18352394;32;20142;-56
2022/09/10 03:05:52;;;;;;;0.70;0.52;;;;;;;21.60;71.83;100028.06;18355441;32;20128;-56
2022/09/10 03:15:58;;;;;;;0.82;0.28;;;;;;;21.65;71.31;100045.53;18356120;32;20145;-56
2022/09/10 03:26:03;;;;;;;0.62;0.50;;;;;;;21.47;71.33;100041.16;18356534;31;20464;-56
2022/09/10 03:36:07;;;;;;;0.32;0.32;;;;;;;21.41;70.55;100032.66;18355367;32;20125;-56
2022/09/10 03:46:11;;;;;;;1.55;0.52;;;;;;;20.96;71.20;100027.88;18351958;32;20101;-56
2022/09/10 03:56:18;;;;;;;1.10;0.73;;;;;;;21.11;70.13;100030.69;18351875;32;20135;-56
2022/09/10 04:06:22;;;;;;;0.40;0.40;;;;;;;20.93;70.60;100039.50;18353595;32;20081;-56
2022/09/10 04:16:26;;;;;;;0.25;0.25;;;;;;;20.93;70.47;100028.91;18354178;32;20412;-56
2022/09/10 04:26:29;;;;;;;0.28;0.28;;;;;;;20.82;70.77;100025.94;18359609;32;20153;-56
2022/09/10 04:36:34;;;;;;;0.30;0.30;;;;;;;20.70;71.11;100042.47;18362171;32;20115;-58
2022/09/10 04:46:38;;;;;;;0.43;0.40;;;;;;;20.71;70.63;100044.16;18361817;32;20148;-57
2022/09/10 04:56:43;;;;;;;0.47;0.30;;;;;;;20.57;71.17;100053.66;18361624;32;20138;-57
2022/09/10 05:06:49;;;;;;;0.30;0.30;;;;;;;20.57;71.28;100053.66;18361070;32;20421;-58
2022/09/10 05:16:54;;;;;;;0.28;0.28;;;;;;;20.45;70.31;100056.94;18362015;32;20121;-57
2022/09/10 05:26:58;;;;;;;0.40;0.40;;;;;;;20.48;69.71;100068.25;18360473;32;20137;-57
2022/09/10 05:37:02;;;;;;;0.28;0.28;;;;;;;20.52;69.20;100061.00;18359848;32;20105;-57
2022/09/10 05:47:05;;;;;;;0.15;0.15;;;;;;;20.70;69.87;100047.75;18359136;32;20093;-57
2022/09/10 05:57:10;;;;;;;0.10;0.10;;;;;;;21.13;69.00;100061.50;18359032;32;20101;-57
2022/09/10 06:07:14;;;;;;;0.30;0.30;;;;;;;21.03;69.16;100060.25;18358880;32;20097;-57
2022/09/10 06:17:18;;;;;;;0.35;0.35;;;;;;;20.33;70.05;100080.44;18359491;32;20116;-57
2022/09/10 06:27:23;;;;;;;0.15;0.15;;;;;;;20.95;68.04;100078.38;18358309;32;20101;-57
2022/09/10 06:37:27;;;;;;;0.20;0.20;;;;;;;21.18;66.60;100067.44;18358152;32;20145;-57
2022/09/10 06:47:30;;;;;;;0.20;0.20;;;;;;;21.80;65.01;100067.78;18356768;32;20108;-57
2022/09/10 06:57:55;;;;;;;0.10;0.10;;;;;;;22.12;61.03;100065.16;18357930;32;20395;-57
2022/09/10 07:07:58;;;;;;;0.10;0.10;;;;;;;22.31;60.37;100068.50;18355468;32;20387;-57
2022/09/10 07:18:03;;;;;;;0.30;0.30;;;;;;;22.55;59.27;100061.88;18356814;32;20105;-57
2022/09/10 07:28:11;;;;;;;0.00;0.00;;;;;;;22.57;60.11;100083.94;18355522;32;20093;-57
2022/09/10 07:38:16;;;;;;;0.00;0.00;;;;;;;22.59;59.84;100090.88;18352943;32;20093;-57
2022/09/10 07:48:20;;;;;;;0.05;0.05;;;;;;;22.67;61.15;100092.22;18352657;32;20426;-57
2022/09/10 07:58:24;;;;;;;0.15;0.15;;;;;;;22.76;61.03;100097.00;18356467;32;20180;-57
2022/09/10 08:08:30;;;;;;;0.20;0.20;;;;;;;22.90;58.82;100113.97;18362961;32;20085;-57
2022/09/10 08:18:36;;;;;;;0.43;0.43;;;;;;;22.95;60.76;100114.53;18363172;32;20125;-57
2022/09/10 08:28:40;;;;;;;0.20;0.20;;;;;;;23.09;59.77;100125.25;18364219;31;20405;-57
2022/09/10 08:38:45;;;;;;;0.43;0.37;;;;;;;23.55;57.35;100129.63;18362484;32;20361;-57
2022/09/10 08:48:53;;;;;;;0.13;0.13;;;;;;;23.95;56.04;100131.63;18414204;31;20101;-57
2022/09/10 08:59:02;;;;;;;0.10;0.10;;;;;;;24.37;52.62;100120.16;18361272;32;20372;-57
2022/09/10 09:09:06;;;;;;;1.50;0.98;;;;;;;24.61;53.17;100124.87;18359738;32;20097;-57
2022/09/10 09:19:16;;;;;;;0.10;0.10;;;;;;;24.71;51.21;100120.62;18360694;32;20142;-56
2022/09/10 09:29:23;;;;;;;0.10;0.10;;;;;;;25.32;47.87;100124.63;18413375;31;20106;-56
2022/09/10 09:39:33;;;;;;;0.10;0.10;;;;;;;24.90;48.79;100130.97;18360102;32;20110;-56
2022/09/10 09:49:36;;;;;;;0.10;0.10;;;;;;;25.05;47.19;100112.19;18360710;32;20097;-56
2022/09/10 09:59:41;;;;;;;0.10;0.10;;;;;;;25.04;47.37;100116.69;18411249;31;20769;-56
2022/09/10 10:09:44;;;;;;;0.00;0.00;;;;;;;25.27;47.33;100105.37;18407356;31;20090;-56
2022/09/10 10:19:58;;;;;;;2.65;0.62;;;;;;;25.56;43.86;100084.69;18355275;32;20495;-55
2022/09/10 10:30:06;;;;;;;0.00;0.00;;;;;;;26.10;41.91;100068.41;18358125;32;20112;-56
2022/09/10 10:40:22;;;;;;;0.10;0.10;;;;;;;26.85;39.64;100069.19;18411221;31;20194;-56
2022/09/10 10:50:31;;;;;;;0.00;0.00;;;;;;;27.52;36.61;100062.25;18410495;31;20462;-56
2022/09/10 11:00:41;;;;;;;0.00;0.00;;;;;;;27.20;37.67;100054.91;18357979;32;20171;-56
2022/09/10 11:10:47;;;;;;;0.00;0.00;;;;;;;27.40;36.36;100055.16;18357596;32;20123;-55
2022/09/10 11:20:57;;;;;;;0.10;0.10;;;;;;;27.80;35.45;100048.47;18356052;32;20111;-56
2022/09/10 11:31:06;;;;;;;0.03;0.03;;;;;;;28.25;34.71;100047.53;18355552;32;20094;-55
2022/09/10 11:41:17;;;;;;;0.07;0.07;;;;;;;28.24;34.37;100024.38;18355193;32;20369;-55
2022/09/10 11:51:24;;;;;;;0.00;0.00;;;;;;;27.98;35.37;100021.97;18354629;32;20141;-56
2022/09/10 12:01:48;;;;;;;0.00;0.00;;;;;;;27.97;34.88;100039.03;18353970;32;20108;-55
2022/09/10 12:11:59;;;;;;;0.70;0.20;;;;;;;27.80;36.82;100035.94;18406422;31;20114;-56
2022/09/10 12:22:05;;;;;;;0.10;0.10;;;;;;;27.65;37.59;100024.63;18354183;32;20481;-55
2022/09/10 12:32:31;;;;;;;0.00;0.00;;;;;;;28.27;34.43;100020.59;18351811;32;20560;-56
2022/09/10 12:42:37;;;;;;;0.08;0.08;;;;;;;28.48;35.81;100017.94;18353427;32;20107;-56
2022/09/10 12:52:49;;;;;;;0.00;0.00;;;;;;;28.42;34.49;100013.09;18362642;32;20098;-56
2022/09/10 13:02:57;;;;;;;0.10;0.10;;;;;;;28.17;36.12;100020.47;18361443;32;20093;-56
2022/09/10 13:13:03;;;;;;;1.35;0.20;;;;;;;28.14;34.97;100007.31;18361242;32;20104;-56
2022/09/10 13:23:20;;;;;;;0.00;0.00;;;;;;;28.31;34.31;100011.28;18360095;32;20104;-55
2022/09/10 13:33:25;;;;;;;0.10;0.10;;;;;;;28.48;34.41;99991.09;18360102;32;20630;-56
2022/09/10 13:43:59;;;;;;;0.05;0.05;;;;;;;28.29;34.92;100016.81;18359846;32;20109;-56
2022/09/10 13:54:07;;;;;;;0.10;0.10;;;;;;;28.83;33.97;100002.53;18410781;31;20105;-56
2022/09/10 14:04:25;;;;;;;0.03;0.03;;;;;;;27.92;33.96;100009.91;18359081;32;20081;-56
2022/09/10 14:14:30;;;;;;;0.10;0.10;;;;;;;27.76;33.40;100001.44;18411692;31;20097;-56
2022/09/10 14:24:48;;;;;;;0.00;0.00;;;;;;;27.99;34.28;99994.19;18358571;31;20090;-56
2022/09/10 14:34:51;;;;;;;0.20;0.10;;;;;;;27.98;33.28;99977.25;18358471;32;20101;-56
2022/09/10 14:44:56;;;;;;;0.08;0.08;;;;;;;27.77;33.22;99979.84;18357779;32;20699;-56
2022/09/10 14:54:59;;;;;;;0.10;0.10;;;;;;;27.80;33.23;99960.84;18357376;32;20116;-56
2022/09/10 15:05:04;;;;;;;0.10;0.10;;;;;;;27.60;32.18;99991.09;18356131;32;20382;-56
2022/09/10 15:15:13;;;;;;;0.10;0.10;;;;;;;27.33;33.22;99984.28;18356190;32;20128;-56
2022/09/10 15:25:29;;;;;;;0.10;0.10;;;;;;;27.27;33.25;99999.88;18355750;32;20107;-56
2022/09/10 15:35:38;;;;;;;0.00;0.00;;;;;;;26.41;33.18;100000.16;18355420;31;20093;-56
2022/09/10 15:45:43;;;;;;;0.10;0.10;;;;;;;26.60;32.53;100006.78;18355332;32;20423;-57
2022/09/10 15:55:46;;;;;;;0.10;0.10;;;;;;;26.51;33.62;100015.50;18354225;32;20105;-56
2022/09/10 16:05:50;;;;;;;0.00;0.00;;;;;;;26.54;33.82;100042.03;18353822;32;20436;-56
2022/09/10 16:16:01;;;;;;;0.10;0.10;;;;;;;26.19;33.66;100046.34;18353552;32;20089;-56
2022/09/10 16:26:06;;;;;;;0.00;0.00;;;;;;;25.77;34.37;100063.59;18360140;32;20093;-56
2022/09/10 16:36:11;;;;;;;0.03;0.03;;;;;;;25.49;33.90;100078.91;18298610;32;20480;-56
2022/09/10 16:46:16;;;;;;;0.00;0.00;;;;;;;25.21;35.32;100063.94;18321151;31;20105;-56
2022/09/10 16:56:19;;;;;;;0.10;0.10;;;;;;;24.80;37.37;100079.16;18413395;31;20206;-56
2022/09/10 17:06:24;;;;;;;0.00;0.00;;;;;;;24.77;38.37;100079.31;18357168;32;20389;-56
2022/09/10 17:16:29;;;;;;;0.10;0.10;;;;;;;24.59;39.06;100103.59;18358228;32;20490;-56
2022/09/10 17:26:35;;;;;;;0.00;0.00;;;;;;;24.23;38.96;100103.25;18360422;32;20093;-56
2022/09/10 17:36:38;;;;;;;0.05;0.05;;;;;;;23.86;39.14;100110.06;18412969;31;20147;-56
2022/09/10 17:46:43;;;;;;;0.10;0.10;;;;;;;23.81;39.29;100124.50;18357984;32;20116;-56
2022/09/10 17:56:47;;;;;;;0.22;0.22;;;;;;;23.64;40.37;100130.91;18411244;31;20108;-56
2022/09/10 18:06:51;;;;;;;0.10;0.10;;;;;;;23.47;41.29;100150.56;18358888;32;20102;-56
2022/09/10 18:16:56;;;;;;;0.10;0.10;;;;;;;23.29;42.16;100176.50;18358545;32;20101;-57
2022/09/10 18:27:03;;;;;;;0.13;0.13;;;;;;;22.96;42.60;100201.47;18359296;32;20115;-56
2022/09/10 18:37:06;;;;;;;0.00;0.00;;;;;;;22.94;42.66;100209.53;18358098;31;20334;-56
2022/09/10 18:47:11;;;;;;;0.10;0.10;;;;;;;22.78;43.93;100209.53;18409164;31;20145;-56
2022/09/10 18:57:35;;;;;;;0.10;0.10;;;;;;;22.36;47.26;100208.28;18411247;31;20201;-56
2022/09/10 19:07:40;;;;;;;0.17;0.17;;;;;;;22.15;47.08;100200.53;18409696;31;20105;-56
2022/09/10 19:17:43;;;;;;;0.10;0.10;;;;;;;21.81;49.01;100199.66;18355437;31;20182;-56
2022/09/10 19:27:47;;;;;;;0.10;0.10;;;;;;;21.44;49.95;100187.34;18355242;32;20111;-56
2022/09/10 19:37:50;;;;;;;0.10;0.10;;;;;;;21.09;51.04;100191.78;18409218;31;20144;-56
2022/09/10 19:47:58;;;;;;;0.20;0.20;;;;;;;20.96;52.40;100180.91;18355798;32;20161;-57
2022/09/10 19:58:01;;;;;;;0.20;0.20;;;;;;;20.75;53.35;100186.28;18362513;32;20098;-56
2022/09/10 20:08:05;;;;;;;0.20;0.20;;;;;;;20.56;53.96;100189.81;18363257;32;20173;-57
2022/09/10 20:18:10;;;;;;;0.20;0.20;;;;;;;20.21;56.06;100195.00;18415793;31;20453;-57
2022/09/10 20:28:14;;;;;;;0.20;0.20;;;;;;;20.26;55.27;100203.59;18412060;31;20182;-57
2022/09/10 20:38:19;;;;;;;0.37;0.22;;;;;;;20.76;52.05;100199.50;18361584;32;20085;-57
2022/09/10 20:48:24;;;;;;;0.10;0.10;;;;;;;21.10;50.98;100202.31;18356646;32;20132;-58
2022/09/10 20:58:27;;;;;;;0.10;0.10;;;;;;;21.11;51.38;100200.53;18355489;32;20086;-57
2022/09/10 21:08:32;;;;;;;0.17;0.17;;;;;;;21.41;50.68;100206.09;18413442;31;20108;-57
2022/09/10 21:18:35;;;;;;;0.10;0.10;;;;;;;21.46;50.31;100201.41;18357880;32;20090;-58
2022/09/10 21:28:39;;;;;;;0.10;0.10;;;;;;;21.33;51.87;100189.69;18355480;32;20128;-58
2022/09/10 21:38:47;;;;;;;0.10;0.10;;;;;;;21.13;52.70;100210.13;18355662;31;20117;-57
2022/09/10 21:48:51;;;;;;;0.15;0.15;;;;;;;20.94;53.41;100204.88;18359760;32;20149;-57
2022/09/10 21:58:55;;;;;;;0.85;0.82;;;;;;;20.42;55.91;100187.81;18357945;32;20119;-57
2022/09/10 22:09:01;;;;;;;0.20;0.20;;;;;;;20.16;56.31;100215.53;18358821;31;20342;-57
2022/09/10 22:19:07;;;;;;;0.30;0.30;;;;;;;20.06;56.44;100215.94;18410686;31;20098;-57
2022/09/10 22:29:14;;;;;;;0.20;0.20;;;;;;;20.00;55.63;100223.31;18359592;32;20125;-57
2022/09/10 22:39:18;;;;;;;0.20;0.20;;;;;;;20.18;54.94;100226.91;18358158;31;20093;-57
2022/09/10 22:49:22;;;;;;;0.20;0.20;;;;;;;20.16;55.09;100234.09;18358408;32;20121;-57
2022/09/10 22:59:26;;;;;;;0.20;0.20;;;;;;;20.35;53.45;100245.56;18357363;32;20390;-57
2022/09/10 23:09:31;;;;;;;0.10;0.10;;;;;;;20.50;53.12;100251.97;18357636;32;20150;-57
2022/09/10 23:19:34;;;;;;;0.20;0.20;;;;;;;20.41;54.12;100243.59;18355921;32;20127;-57
2022/09/10 23:29:40;;;;;;;0.90;0.30;;;;;;;20.34;54.17;100251.81;18356577;32;20366;-57
2022/09/10 23:39:43;;;;;;;0.20;0.20;;;;;;;20.46;54.53;100241.56;18355153;32;20134;-57
2022/09/10 23:49:47;;;;;;;0.20;0.20;;;;;;;20.01;55.69;100241.78;18353398;31;71352;-57
2022/09/10 23:59:51;;;;;;;0.10;0.10;;;;;;;19.83;55.79;100235.47;18354360;32;20532;-57
